Time;durP1;ratioP1;P1;durP2;ratioP2;P2;SDS_P1;SDS_P2;PMS_P1;PMS_P2;Temp;Humidity;BMP_temperature;BMP_pressure;BME280_temperature;BME280_humidity;BME280_pressure;Samples;Min_cycle;Max_cycle;Signal;HPM_P1;HPM_P2
2021/05/05 00:01:10;;;;;;;7.63;1.53;;;;;;;5.85;77.20;98685.63;5093197;28;20058;-65
2021/05/05 00:03:35;;;;;;;7.93;1.90;;;;;;;5.85;77.37;98667.09;5093048;28;20444;-64
2021/05/05 00:06:02;;;;;;;4.40;2.13;;;;;;;5.87;77.02;98658.97;5093061;28;20032;-64
2021/05/05 00:08:27;;;;;;;3.90;2.00;;;;;;;5.90;76.46;98679.81;5092704;28;20066;-64
2021/05/05 00:10:53;;;;;;;7.27;1.50;;;;;;;5.88;77.71;98676.50;5092939;28;20342;-64
2021/05/05 00:13:18;;;;;;;8.37;1.83;;;;;;;5.84;76.94;98676.03;5058177;28;20031;-63
2021/05/05 00:15:44;;;;;;;6.73;2.33;;;;;;;5.83;77.99;98666.47;5075150;28;20119;-63
2021/05/05 00:18:10;;;;;;;10.35;3.08;;;;;;;5.86;76.76;98662.63;5092409;28;20176;-64
2021/05/05 00:20:36;;;;;;;6.07;1.30;;;;;;;5.90;75.26;98643.53;5092839;28;20516;-64
2021/05/05 00:23:02;;;;;;;8.13;1.50;;;;;;;5.95;75.47;98666.00;5092745;28;20027;-64
2021/05/05 00:25:28;;;;;;;5.65;1.35;;;;;;;5.86;76.48;98676.69;5074773;28;20139;-64
2021/05/05 00:27:53;;;;;;;7.85;1.50;;;;;;;5.89;76.23;98659.59;5091772;28;20075;-64
2021/05/05 00:30:21;;;;;;;3.47;1.10;;;;;;;5.87;77.14;98659.78;5092603;28;20028;-64
2021/05/05 00:32:47;;;;;;;8.50;1.90;;;;;;;5.89;76.76;98651.66;5092447;28;20469;-64
2021/05/05 00:35:13;;;;;;;4.63;1.17;;;;;;;5.82;77.39;98670.09;5092543;28;20040;-64
2021/05/05 00:37:39;;;;;;;7.55;2.53;;;;;;;5.77;78.22;98661.88;5092199;28;20028;-64
2021/05/05 00:40:06;;;;;;;7.90;2.00;;;;;;;5.76;79.44;98678.78;5074693;28;20039;-64
2021/05/05 00:42:31;;;;;;;5.68;2.08;;;;;;;5.70;78.74;98653.03;5092357;28;20224;-64
2021/05/05 00:45:02;;;;;;;7.70;1.60;;;;;;;5.70;79.72;98680.31;5092213;28;20521;-64
2021/05/05 00:47:28;;;;;;;5.68;2.13;;;;;;;5.66;79.96;98670.28;5091817;28;20048;-63
2021/05/05 00:49:54;;;;;;;5.07;1.42;;;;;;;5.61;79.79;98662.06;5092139;28;20165;-64
2021/05/05 00:52:20;;;;;;;4.75;1.40;;;;;;;5.58;80.56;98675.66;5092180;28;20063;-64
2021/05/05 00:54:45;;;;;;;9.02;1.52;;;;;;;5.53;80.64;98678.03;5092021;28;20043;-64
2021/05/05 00:57:12;;;;;;;5.50;1.52;;;;;;;5.52;80.64;98677.19;5074405;28;20028;-63
2021/05/05 00:59:37;;;;;;;8.77;1.38;;;;;;;5.49;81.07;98667.78;5057294;28;20475;-64
2021/05/05 01:02:03;;;;;;;5.30;1.53;;;;;;;5.50;81.45;98689.78;5074094;28;20110;-64
2021/05/05 01:04:30;;;;;;;5.28;2.25;;;;;;;5.44;82.12;98669.34;5073986;28;20439;-64
2021/05/05 01:06:56;;;;;;;5.03;2.45;;;;;;;5.39;82.53;98683.13;5057702;28;20582;-64
2021/05/05 01:09:22;;;;;;;8.63;1.73;;;;;;;5.33;83.12;98669.78;5091540;28;20044;-63
2021/05/05 01:11:48;;;;;;;15.95;2.95;;;;;;;5.29;83.68;98680.72;5091805;28;20392;-64
2021/05/05 01:14:13;;;;;;;7.23;2.30;;;;;;;5.26;83.35;98667.03;5091738;28;20127;-63
2021/05/05 01:16:39;;;;;;;7.80;2.05;;;;;;;5.27;84.29;98681.91;5073816;28;20038;-70
2021/05/05 01:19:04;;;;;;;6.27;1.80;;;;;;;5.23;83.93;98670.03;5057026;28;20046;-70
2021/05/05 01:21:30;;;;;;;11.68;2.67;;;;;;;5.20;83.48;98663.28;5091588;28;20425;-69
2021/05/05 01:23:56;;;;;;;8.20;3.03;;;;;;;5.19;83.65;98663.44;5073859;28;20040;-69
2021/05/05 01:26:22;;;;;;;6.47;2.33;;;;;;;5.19;84.27;98658.16;5073696;28;20048;-70
2021/05/05 01:28:47;;;;;;;7.70;2.08;;;;;;;5.19;84.31;98684.59;5073490;28;20093;-70
2021/05/05 01:31:16;;;;;;;7.60;2.28;;;;;;;5.13;84.26;98641.19;5073373;28;20036;-69
2021/05/05 01:33:43;;;;;;;6.90;1.58;;;;;;;5.17;84.56;98660.16;5056876;28;20032;-70
2021/05/05 01:36:13;;;;;;;5.70;1.77;;;;;;;5.12;85.30;98665.16;5073613;28;20016;-70
2021/05/05 01:38:38;;;;;;;2.85;1.60;;;;;;;5.11;84.34;98658.25;5090726;28;20461;-69
2021/05/05 01:41:05;;;;;;;16.00;1.83;;;;;;;5.10;84.36;98652.09;5090999;28;20062;-70
2021/05/05 01:43:30;;;;;;;5.22;1.92;;;;;;;5.12;84.94;98663.34;5073715;28;20040;-70
2021/05/05 01:45:56;;;;;;;11.77;2.63;;;;;;;5.08;84.57;98660.25;5091178;28;20423;-69
2021/05/05 01:48:22;;;;;;;7.55;1.70;;;;;;;5.05;85.17;98660.56;5073275;28;20047;-69
2021/05/05 01:50:47;;;;;;;4.90;1.87;;;;;;;5.02;84.74;98660.94;5091246;28;20077;-70
2021/05/05 01:53:17;;;;;;;5.38;1.55;;;;;;;5.01;85.05;98659.31;5073410;28;20032;-69
2021/05/05 01:55:44;;;;;;;8.50;2.38;;;;;;;4.99;85.24;98671.88;5056858;28;20043;-69
2021/05/05 01:58:12;;;;;;;6.00;1.83;;;;;;;4.99;85.76;98671.88;5073080;28;20035;-69
2021/05/05 02:00:39;;;;;;;4.05;1.85;;;;;;;4.98;85.69;98670.22;5091053;28;20051;-70
2021/05/05 02:03:09;;;;;;;6.68;1.90;;;;;;;4.99;85.36;98666.59;5091204;28;20526;-70
2021/05/05 02:05:40;;;;;;;6.35;2.22;;;;;;;4.98;86.17;98666.75;5073427;28;20032;-69
2021/05/05 02:08:15;;;;;;;7.93;1.97;;;;;;;4.98;85.73;98669.41;5073123;28;20028;-69
2021/05/05 02:10:41;;;;;;;11.70;2.90;;;;;;;4.99;86.21;98668.41;5090932;28;20635;-63
2021/05/05 02:13:07;;;;;;;7.97;1.60;;;;;;;4.99;85.40;98671.88;5073107;28;20036;-63
2021/05/05 02:15:32;;;;;;;5.95;2.78;;;;;;;4.97;85.35;98658.00;5091017;28;20039;-63
2021/05/05 02:18:00;;;;;;;11.13;2.20;;;;;;;4.97;85.49;98652.72;5090793;28;20032;-63
2021/05/05 02:20:26;;;;;;;6.47;1.55;;;;;;;4.94;85.99;98666.31;5056606;28;20073;-63
2021/05/05 02:22:53;;;;;;;7.25;1.52;;;;;;;4.97;85.41;98665.94;5090968;28;20401;-63
2021/05/05 02:25:18;;;;;;;8.82;1.52;;;;;;;4.96;85.66;98663.47;5073058;28;20134;-63
2021/05/05 02:27:45;;;;;;;5.60;2.10;;;;;;;4.96;85.79;98660.81;5056225;28;20119;-63
2021/05/05 02:30:17;;;;;;;5.32;1.95;;;;;;;4.98;85.58;98664.94;5090969;28;20027;-63
2021/05/05 02:32:52;;;;;;;3.58;1.60;;;;;;;4.95;85.53;98665.28;5090904;28;20050;-64
2021/05/05 02:35:19;;;;;;;4.60;1.30;;;;;;;4.93;85.63;98662.00;5073048;28;20042;-64
2021/05/05 02:37:45;;;;;;;8.82;2.22;;;;;;;4.88;86.10;98663.53;5072651;28;20461;-64
2021/05/05 02:40:12;;;;;;;5.35;2.10;;;;;;;4.88;86.73;98677.56;5090762;28;20026;-64
2021/05/05 02:42:39;;;;;;;5.75;1.88;;;;;;;4.82;86.16;98655.31;5056189;28;20116;-64
2021/05/05 02:45:05;;;;;;;7.50;2.70;;;;;;;4.80;86.66;98648.53;5090718;28;20538;-64
2021/05/05 02:47:31;;;;;;;;;;;;;;;4.74;87.46;98660.66;5073189;28;20058;-64
2021/05/05 02:49:56;;;;;;;7.50;1.90;;;;;;;4.72;87.65;98667.94;5090799;28;19912;-64
2021/05/05 02:52:22;;;;;;;9.18;2.78;;;;;;;4.69;88.03;98651.63;5076358;28;20406;-64
2021/05/05 02:54:48;;;;;;;1.57;1.07;;;;;;;4.70;87.65;98656.72;5076571;28;20115;-63
2021/05/05 02:57:13;;;;;;;5.13;2.30;;;;;;;4.68;87.65;98660.53;5094443;28;20473;-63
2021/05/05 02:59:39;;;;;;;9.15;2.72;;;;;;;4.74;88.41;98662.47;5075994;28;20062;-64
2021/05/05 03:02:05;;;;;;;5.07;1.60;;;;;;;4.73;87.73;98666.09;5076492;28;20040;-63
2021/05/05 03:04:30;;;;;;;;;;;;;;;4.74;88.25;98663.28;5094711;28;20046;-64
2021/05/05 03:06:56;;;;;;;;;;;;;;;4.69;88.46;98656.91;5076773;28;19916;-64
2021/05/05 03:09:26;;;;;;;5.53;1.70;;;;;;;4.66;88.33;98681.88;5093847;28;20359;-63
2021/05/05 03:11:59;;;;;;;3.17;1.40;;;;;;;4.62;87.89;98659.41;5076313;28;20050;-63
2021/05/05 03:14:25;;;;;;;11.15;2.75;;;;;;;4.63;88.33;98667.16;5093789;28;20046;-64
2021/05/05 03:16:52;;;;;;;4.07;1.83;;;;;;;4.57;89.05;98667.88;5094075;28;20063;-64
2021/05/05 03:19:17;;;;;;;8.73;4.47;;;;;;;4.60;89.31;98662.22;5059164;28;20097;-63
2021/05/05 03:21:43;;;;;;;3.87;1.40;;;;;;;4.57;88.58;98673.16;5093805;28;20032;-63
2021/05/05 03:24:08;;;;;;;5.53;1.50;;;;;;;4.53;88.01;98666.56;5059462;28;20058;-63
2021/05/05 03:26:35;;;;;;;2.45;1.48;;;;;;;4.58;88.21;98664.22;5093842;28;20365;-65
2021/05/05 03:29:00;;;;;;;3.75;1.48;;;;;;;4.53;87.11;98652.53;5075630;28;20051;-63
2021/05/05 03:31:25;;;;;;;3.67;1.77;;;;;;;4.56;87.32;98665.41;5093759;28;20039;-63
2021/05/05 03:33:51;;;;;;;2.47;1.30;;;;;;;4.57;87.36;98673.16;5075853;28;20082;-64
2021/05/05 03:36:16;;;;;;;4.93;1.67;;;;;;;4.56;87.22;98670.69;5059094;28;20478;-63
2021/05/05 03:38:42;;;;;;;3.50;1.77;;;;;;;4.57;88.13;98665.22;5093337;28;20513;-64
2021/05/05 03:41:07;;;;;;;3.50;1.33;;;;;;;4.52;87.93;98670.22;5059209;28;20085;-64
2021/05/05 03:43:32;;;;;;;6.00;2.00;;;;;;;4.53;88.62;98677.13;5093468;28;20357;-64
2021/05/05 03:45:58;;;;;;;5.80;1.60;;;;;;;4.51;88.81;98665.91;5075713;28;20046;-64
2021/05/05 03:48:24;;;;;;;4.67;1.50;;;;;;;4.47;88.80;98671.72;5093215;28;20046;-63
2021/05/05 03:50:52;;;;;;;4.30;1.65;;;;;;;4.47;89.17;98677.81;5093351;28;20062;-64
2021/05/05 03:53:17;;;;;;;5.30;2.00;;;;;;;4.49;88.97;98665.25;5075519;28;20032;-64
2021/05/05 03:55:43;;;;;;;9.27;1.70;;;;;;;4.47;88.77;98677.81;5093342;28;20043;-63
2021/05/05 03:58:08;;;;;;;4.47;1.53;;;;;;;4.51;89.09;98684.41;5092893;28;20046;-63
2021/05/05 04:00:33;;;;;;;9.40;2.17;;;;;;;4.49;88.88;98673.19;5093230;28;20028;-63
2021/05/05 04:02:59;;;;;;;4.00;1.60;;;;;;;4.52;89.22;98664.09;5074503;28;20054;-64
2021/05/05 04:05:24;;;;;;;4.30;1.50;;;;;;;4.47;88.58;98655.88;5093049;28;20481;-62
2021/05/05 04:07:49;;;;;;;8.83;2.40;;;;;;;4.47;88.82;98664.59;5092841;28;20449;-63
2021/05/05 04:10:15;;;;;;;5.87;1.57;;;;;;;4.47;87.96;98656.69;5092937;28;20369;-63
2021/05/05 04:12:40;;;;;;;5.27;1.40;;;;;;;4.50;88.23;98658.19;5075201;28;20508;-62
2021/05/05 04:15:07;;;;;;;4.13;1.70;;;;;;;4.53;88.28;98656.00;5075130;28;20044;-62
2021/05/05 04:17:32;;;;;;;5.50;2.20;;;;;;;4.58;88.05;98650.19;5058189;28;20082;-63
2021/05/05 04:19:58;;;;;;;7.57;2.53;;;;;;;4.57;87.21;98640.63;5092781;28;20115;-63
2021/05/05 04:22:24;;;;;;;8.43;2.30;;;;;;;4.56;87.54;98645.06;5075040;28;20036;-63
2021/05/05 04:24:49;;;;;;;7.40;2.00;;;;;;;4.57;87.98;98652.00;5092650;28;20052;-63
2021/05/05 04:27:16;;;;;;;7.57;1.75;;;;;;;4.58;88.01;98651.00;5074809;28;20427;-62
2021/05/05 04:29:41;;;;;;;;;;;;;;;4.55;87.78;98659.28;5092648;28;20039;-63
2021/05/05 04:32:07;;;;;;;;;;;;;;;4.55;87.98;98643.44;5093130;28;19915;-63
2021/05/05 04:34:32;;;;;;;3.37;1.70;;;;;;;4.52;88.57;98635.03;5074651;28;19916;-64
2021/05/05 04:36:59;;;;;;;9.83;2.67;;;;;;;4.55;88.49;98647.91;5074686;28;20060;-64
2021/05/05 04:39:24;;;;;;;;;;;;;;;4.55;88.64;98653.19;5074846;28;20039;-62
2021/05/05 04:41:49;;;;;;;;;;;;;;;4.50;88.14;98659.00;5058376;28;19916;-62
2021/05/05 04:44:15;;;;;;;5.27;1.60;;;;;;;4.54;88.57;98647.09;5074588;28;19912;-62
2021/05/05 04:46:41;;;;;;;2.80;1.60;;;;;;;4.50;88.26;98642.31;5057963;28;20043;-62
2021/05/05 04:49:06;;;;;;;7.20;1.67;;;;;;;4.53;87.95;98663.91;5074204;28;20072;-63
2021/05/05 04:51:33;;;;;;;4.37;1.80;;;;;;;4.56;88.33;98634.50;5092276;28;20098;-63
2021/05/05 04:53:58;;;;;;;4.85;2.28;;;;;;;4.52;88.36;98646.44;5092188;28;20032;-63
2021/05/05 04:56:24;;;;;;;14.27;2.77;;;;;;;4.55;88.38;98651.38;5092146;28;20067;-63
2021/05/05 04:58:49;;;;;;;11.43;1.93;;;;;;;4.53;88.35;98645.44;5074115;28;20065;-63
2021/05/05 05:01:14;;;;;;;3.73;1.70;;;;;;;4.54;87.85;98646.25;5074155;28;20039;-63
2021/05/05 05:03:40;;;;;;;4.67;2.10;;;;;;;4.53;87.55;98653.34;5091859;28;20032;-63
2021/05/05 05:06:05;;;;;;;6.57;1.50;;;;;;;4.56;87.75;98660.94;5091955;28;20043;-63
2021/05/05 05:08:31;;;;;;;7.33;2.07;;;;;;;4.61;87.82;98655.97;5091687;28;20032;-63
2021/05/05 05:10:56;;;;;;;5.10;1.80;;;;;;;4.61;87.84;98663.88;5073834;28;20035;-63
2021/05/05 05:13:21;;;;;;;4.20;2.20;;;;;;;4.63;87.30;98667.16;5073650;28;20093;-63
2021/05/05 05:15:47;;;;;;;6.00;1.87;;;;;;;4.63;86.33;98651.28;5091737;28;20032;-63
2021/05/05 05:18:12;;;;;;;6.93;1.70;;;;;;;4.68;86.50;98637.56;5056986;28;20380;-63
2021/05/05 05:20:38;;;;;;;5.13;1.47;;;;;;;4.68;86.63;98657.88;5073895;28;20376;-63
2021/05/05 05:23:03;;;;;;;8.87;2.00;;;;;;;4.68;86.77;98632.25;5091797;28;20373;-63
2021/05/05 05:25:28;;;;;;;6.50;2.30;;;;;;;4.72;86.02;98649.44;5091656;28;20180;-63
2021/05/05 05:27:54;;;;;;;7.93;1.97;;;;;;;4.77;86.57;98640.97;5073471;28;20048;-62
2021/05/05 05:30:21;;;;;;;5.57;2.13;;;;;;;4.79;87.03;98641.63;5091617;28;20476;-62
2021/05/05 05:32:47;;;;;;;4.28;1.70;;;;;;;4.82;86.85;98625.41;5073343;28;20051;-62
2021/05/05 05:35:13;;;;;;;5.05;1.58;;;;;;;5.18;86.57;98633.53;5073628;28;20036;-62
2021/05/05 05:37:38;;;;;;;;;;;;;;;5.18;86.43;98638.00;5091551;28;20069;-62
2021/05/05 05:40:04;;;;;;;;;;;;;;;4.88;85.29;98635.28;5074089;28;20297;-62
2021/05/05 05:42:30;;;;;;;13.57;2.20;;;;;;;4.79;87.17;98647.72;5091327;28;20006;-62
2021/05/05 05:44:55;;;;;;;4.40;1.80;;;;;;;4.73;86.46;98640.50;5073596;28;20066;-62
2021/05/05 05:47:21;;;;;;;11.90;2.97;;;;;;;4.74;87.12;98641.34;5091224;28;20361;-62
2021/05/05 05:49:46;;;;;;;8.73;1.70;;;;;;;4.73;86.42;98639.66;5091001;28;20505;-62
2021/05/05 05:52:11;;;;;;;5.77;1.70;;;;;;;4.73;86.57;98637.03;5073559;28;20123;-62
2021/05/05 05:54:37;;;;;;;5.40;2.60;;;;;;;4.74;86.89;98633.41;5056754;28;20040;-63
2021/05/05 05:57:02;;;;;;;6.83;1.80;;;;;;;4.71;86.96;98634.56;5073604;28;20128;-62
2021/05/05 05:59:27;;;;;;;4.00;1.97;;;;;;;4.73;87.40;98642.31;5073298;28;20040;-63
2021/05/05 06:01:53;;;;;;;8.73;2.10;;;;;;;4.68;87.25;98649.94;5073295;28;20043;-63
2021/05/05 06:04:19;;;;;;;10.18;2.20;;;;;;;4.69;88.13;98635.75;5073429;28;20040;-63
2021/05/05 06:06:45;;;;;;;5.47;1.73;;;;;;;4.64;88.28;98639.75;5091092;28;20028;-63
2021/05/05 06:09:11;;;;;;;4.72;2.03;;;;;;;4.64;88.37;98637.09;5090955;28;20036;-63
2021/05/05 06:11:36;;;;;;;11.32;2.80;;;;;;;4.58;88.51;98645.72;5091025;28;20184;-63
2021/05/05 06:14:03;;;;;;;8.80;2.97;;;;;;;4.57;88.14;98649.38;5090956;28;20101;-63
2021/05/05 06:16:28;;;;;;;7.88;1.60;;;;;;;4.58;87.62;98655.47;5090961;28;20039;-63
2021/05/05 06:18:53;;;;;;;10.73;2.77;;;;;;;4.56;87.82;98660.09;5072845;28;20042;-63
2021/05/05 06:21:19;;;;;;;5.17;2.30;;;;;;;4.55;87.37;98654.00;5073270;28;20472;-63
2021/05/05 06:23:44;;;;;;;7.50;2.47;;;;;;;4.62;88.27;98660.22;5072857;28;20277;-63
2021/05/05 06:26:10;;;;;;;8.83;2.27;;;;;;;4.57;88.63;98661.78;5092719;28;20039;-63
2021/05/05 06:28:35;;;;;;;9.57;2.40;;;;;;;4.57;88.85;98662.59;5076727;28;20043;-63
2021/05/05 06:31:00;;;;;;;12.27;5.53;;;;;;;4.62;88.86;98664.72;5094848;28;20028;-63
2021/05/05 06:33:26;;;;;;;6.75;1.70;;;;;;;4.62;88.63;98675.28;5076956;28;20054;-63
2021/05/05 06:35:52;;;;;;;9.20;2.88;;;;;;;4.54;88.26;98672.66;5094840;28;20128;-64
2021/05/05 06:38:17;;;;;;;6.13;2.07;;;;;;;4.53;87.82;98669.22;5094570;28;20044;-63
2021/05/05 06:40:43;;;;;;;7.45;2.67;;;;;;;4.56;88.11;98671.50;5094800;28;20062;-63
2021/05/05 06:43:08;;;;;;;7.00;1.90;;;;;;;4.56;88.33;98687.34;5094713;28;20346;-63
2021/05/05 06:45:33;;;;;;;8.20;2.20;;;;;;;4.50;87.99;98666.09;5076976;28;20132;-63
2021/05/05 06:47:59;;;;;;;4.17;1.93;;;;;;;4.56;88.45;98668.84;5094286;28;20032;-63
2021/05/05 06:50:25;;;;;;;3.70;1.63;;;;;;;4.54;88.42;98675.31;5076754;28;20040;-63
2021/05/05 06:52:50;;;;;;;5.45;2.13;;;;;;;4.56;88.12;98674.13;5076689;28;20201;-63
2021/05/05 06:55:16;;;;;;;3.50;1.47;;;;;;;4.65;88.21;98680.22;5076684;28;20035;-63
2021/05/05 06:57:41;;;;;;;2.57;1.50;;;;;;;4.73;88.86;98685.47;5076247;28;20043;-63
2021/05/05 07:00:08;;;;;;;5.57;1.55;;;;;;;4.67;88.69;98682.69;5094333;28;20043;-63
2021/05/05 07:02:34;;;;;;;6.20;2.00;;;;;;;4.58;88.19;98689.84;5093678;28;20114;-62
2021/05/05 07:04:59;;;;;;;1.45;0.98;;;;;;;4.53;87.69;98682.44;5094162;28;20123;-63
2021/05/05 07:07:28;;;;;;;1.98;1.40;;;;;;;4.63;88.46;98698.06;5093923;28;20042;-63
2021/05/05 07:09:53;;;;;;;4.82;1.50;;;;;;;4.65;88.47;98696.88;5094047;28;20070;-63
2021/05/05 07:12:19;;;;;;;5.37;1.33;;;;;;;4.60;88.33;98708.97;5094147;28;20032;-63
2021/05/05 07:14:44;;;;;;;2.78;0.93;;;;;;;4.49;88.09;98722.59;5076054;28;20427;-63
2021/05/05 07:17:10;;;;;;;3.13;0.83;;;;;;;4.41;88.50;98721.63;5076032;28;20036;-63
2021/05/05 07:19:35;;;;;;;1.63;0.67;;;;;;;4.33;88.69;98728.75;5093823;28;20111;-63
2021/05/05 07:22:00;;;;;;;3.07;0.80;;;;;;;4.29;88.85;98716.91;5076188;28;20134;-63
2021/05/05 07:24:26;;;;;;;1.57;0.60;;;;;;;4.23;89.29;98728.97;5093858;28;20079;-63
2021/05/05 07:26:51;;;;;;;1.33;0.50;;;;;;;4.19;89.52;98738.22;5093917;28;20038;-63
2021/05/05 07:29:16;;;;;;;1.47;0.40;;;;;;;3.78;88.69;98704.84;5059022;28;20040;-63
2021/05/05 07:31:42;;;;;;;4.33;0.77;;;;;;;3.75;88.54;98723.66;5075895;28;20042;-63
2021/05/05 07:34:09;;;;;;;1.33;0.40;;;;;;;3.62;88.63;98718.06;5075930;28;20054;-63
2021/05/05 07:36:34;;;;;;;3.13;0.30;;;;;;;3.69;88.70;98732.25;5093050;28;20059;-63
2021/05/05 07:39:20;;;;;;;4.20;0.90;;;;;;;3.63;88.44;98727.66;5074720;28;20070;-63
2021/05/05 07:47:04;;;;;;;0.88;0.30;;;;;;;3.75;88.81;98736.88;5075670;28;20035;-63
2021/05/05 07:49:37;;;;;;;3.78;0.85;;;;;;;3.80;89.15;98742.47;5093165;28;20107;-63
2021/05/05 07:52:03;;;;;;;4.85;0.60;;;;;;;3.92;89.22;98753.50;5093421;28;20131;-63
2021/05/05 07:54:28;;;;;;;1.05;0.40;;;;;;;3.96;89.40;98754.00;5093139;28;20119;-63
2021/05/05 07:56:53;;;;;;;1.77;0.70;;;;;;;4.02;89.35;98754.13;5075761;28;20063;-63
2021/05/05 07:59:19;;;;;;;1.30;0.60;;;;;;;4.11;89.84;98768.13;5092950;28;20047;-63
2021/05/05 08:01:44;;;;;;;9.23;0.50;;;;;;;4.10;90.41;98782.34;5075431;28;20469;-63
2021/05/05 08:04:09;;;;;;;3.33;0.50;;;;;;;4.04;89.83;98759.25;5093257;28;20508;-63
2021/05/05 08:06:35;;;;;;;4.47;1.53;;;;;;;4.00;90.27;98766.69;5075194;28;20476;-63
2021/05/05 08:09:01;;;;;;;1.80;0.40;;;;;;;3.86;89.61;98758.63;5075058;28;20042;-63
2021/05/05 08:11:26;;;;;;;2.00;0.50;;;;;;;3.96;90.06;98769.84;5075066;28;20148;-62
2021/05/05 08:13:52;;;;;;;0.10;0.10;;;;;;;3.93;89.32;98760.44;5092926;28;20342;-62
2021/05/05 08:16:19;;;;;;;3.17;0.68;;;;;;;3.97;89.51;98777.56;5075218;28;20035;-62
2021/05/05 08:18:46;;;;;;;1.67;0.60;;;;;;;4.03;89.99;98786.66;5074775;28;20059;-62
2021/05/05 08:21:12;;;;;;;1.88;0.50;;;;;;;4.01;89.87;98763.03;5092647;28;20043;-62
2021/05/05 08:23:38;;;;;;;1.80;0.47;;;;;;;4.02;89.86;98774.41;5075041;28;20408;-63
2021/05/05 08:26:05;;;;;;;5.88;0.60;;;;;;;4.08;90.44;98763.19;5074780;28;20047;-62
2021/05/05 08:28:31;;;;;;;3.75;0.65;;;;;;;4.11;90.11;98778.69;5092431;28;20028;-62
2021/05/05 08:30:58;;;;;;;2.60;0.80;;;;;;;4.32;90.52;98764.09;5074893;28;20118;-62
2021/05/05 08:33:23;;;;;;;;;;;;;;;4.51;90.77;98787.47;5074547;28;20036;-63
2021/05/05 08:35:49;;;;;;;8.38;1.25;;;;;;;4.59;90.32;98784.81;5074782;28;20372;-62
2021/05/05 08:38:14;;;;;;;3.07;0.90;;;;;;;4.72;90.75;98781.59;5092183;28;20444;-62
2021/05/05 08:40:41;;;;;;;3.53;0.98;;;;;;;4.84;90.79;98793.44;5092513;28;20032;-62
2021/05/05 08:43:06;;;;;;;1.60;0.70;;;;;;;4.94;90.94;98798.53;5074676;28;20057;-62
2021/05/05 08:45:32;;;;;;;1.53;0.80;;;;;;;5.03;90.67;98802.78;5091713;28;20043;-63
2021/05/05 08:48:00;;;;;;;6.10;1.13;;;;;;;4.99;90.18;98798.81;5074045;28;20613;-62
2021/05/05 08:50:28;;;;;;;5.85;1.05;;;;;;;5.04;90.14;98804.41;5092264;28;20035;-62
2021/05/05 08:52:55;;;;;;;3.83;0.57;;;;;;;5.09;90.03;98814.47;5092047;28;20128;-62
2021/05/05 08:55:22;;;;;;;5.20;0.90;;;;;;;5.22;89.89;98811.22;5092304;28;20338;-62
2021/05/05 08:57:48;;;;;;;3.72;0.82;;;;;;;5.24;89.65;98812.72;5074054;28;20107;-62
2021/05/05 09:00:18;;;;;;;4.65;0.77;;;;;;;5.13;89.09;98805.19;5074383;28;20047;-62
2021/05/05 09:02:43;;;;;;;1.83;0.57;;;;;;;5.21;89.74;98796.38;5092059;28;20114;-62
2021/05/05 09:05:12;;;;;;;3.72;0.93;;;;;;;5.28;88.64;98821.13;5057642;28;20139;-62
2021/05/05 09:07:40;;;;;;;4.10;0.55;;;;;;;5.19;87.59;98816.88;5073855;28;20079;-62
2021/05/05 09:10:08;;;;;;;3.97;0.43;;;;;;;5.22;88.16;98798.00;5074152;28;20342;-62
2021/05/05 09:12:36;;;;;;;1.13;0.52;;;;;;;5.29;88.72;98797.16;5074127;28;20043;-62
2021/05/05 09:15:06;;;;;;;3.15;0.40;;;;;;;5.37;88.33;98813.97;5091228;28;20522;-62
2021/05/05 09:17:36;;;;;;;3.22;0.85;;;;;;;5.56;88.16;98807.38;5081531;28;20048;-62
2021/05/05 09:20:04;;;;;;;3.03;0.43;;;;;;;5.63;87.86;98808.31;5089847;28;20501;-62
2021/05/05 09:22:36;;;;;;;3.83;0.60;;;;;;;5.71;88.37;98817.00;5072214;28;20414;-62
2021/05/05 09:25:04;;;;;;;1.60;0.32;;;;;;;5.59;87.20;98830.84;5090021;28;20449;-62
2021/05/05 09:27:33;;;;;;;4.32;0.70;;;;;;;5.27;87.14;98815.03;5089768;28;20515;-62
2021/05/05 09:30:00;;;;;;;3.63;1.20;;;;;;;5.43;87.53;98827.31;5089982;28;20028;-62
2021/05/05 09:32:26;;;;;;;3.20;0.80;;;;;;;5.63;88.36;98832.13;5091351;28;20036;-62
2021/05/05 09:35:00;;;;;;;3.75;0.80;;;;;;;5.58;87.17;98829.19;5091548;28;20051;-62
2021/05/05 09:37:26;;;;;;;5.00;1.98;;;;;;;5.67;87.46;98833.44;5091302;28;20035;-62
2021/05/05 09:40:10;;;;;;;9.23;0.77;;;;;;;6.05;88.00;98838.75;5091484;28;20050;-62
2021/05/05 09:42:36;;;;;;;4.80;1.10;;;;;;;5.87;86.71;98834.56;5091510;28;20067;-62
2021/05/05 09:45:10;;;;;;;;;;;;;;;5.83;87.96;98846.53;5091753;28;20055;-62
2021/05/05 09:47:56;;;;;;;5.18;0.93;;;;;;;5.85;87.78;98825.16;5073434;28;19912;-62
2021/05/05 09:50:37;;;;;;;2.38;0.95;;;;;;;5.77;87.86;98843.78;5091361;28;20032;-62
2021/05/05 09:53:23;;;;;;;3.72;0.80;;;;;;;5.96;88.52;98856.56;5073560;28;20043;-62
2021/05/05 09:55:52;;;;;;;6.65;0.85;;;;;;;5.91;86.61;98850.94;5073638;28;20028;-63
2021/05/05 09:58:32;;;;;;;4.10;0.70;;;;;;;6.21;86.73;98843.91;5090755;28;20422;-62
2021/05/05 10:01:03;;;;;;;2.60;0.60;;;;;;;6.08;84.61;98841.88;5090405;28;20135;-62
2021/05/05 10:03:52;;;;;;;9.45;1.38;;;;;;;6.18;85.92;98851.38;5073395;28;20097;-62
2021/05/05 10:06:20;;;;;;;6.38;1.15;;;;;;;5.83;84.60;98849.19;5073294;28;20489;-62
2021/05/05 10:08:51;;;;;;;2.58;0.70;;;;;;;5.92;85.54;98847.28;5090929;28;20043;-62
2021/05/05 10:11:24;;;;;;;3.42;0.93;;;;;;;6.04;85.94;98851.19;5091097;28;20357;-62
2021/05/05 10:13:55;;;;;;;2.95;0.88;;;;;;;6.13;86.62;98859.88;5091067;28;20032;-62
2021/05/05 10:16:22;;;;;;;2.30;1.00;;;;;;;6.15;86.48;98857.88;5073205;28;20078;-63
2021/05/05 10:18:48;;;;;;;4.60;0.95;;;;;;;5.87;86.09;98870.81;5090741;28;20086;-62
2021/05/05 10:21:14;;;;;;;;;;;;;;;5.72;86.80;98852.25;5091513;28;20173;-62
2021/05/05 10:23:43;;;;;;;;;;;;;;;5.79;87.43;98868.25;5073708;28;20226;-62
2021/05/05 10:26:10;;;;;;;2.47;0.77;;;;;;;5.87;86.69;98858.41;5090774;28;19920;-62
2021/05/05 10:28:37;;;;;;;3.00;0.90;;;;;;;6.01;86.13;98864.78;5090466;28;20449;-62
2021/05/05 10:31:03;;;;;;;6.88;1.08;;;;;;;6.05;85.72;98863.41;5073161;28;20028;-62
2021/05/05 10:33:36;;;;;;;4.70;1.00;;;;;;;6.24;86.06;98869.22;5090688;28;20446;-62
2021/05/05 10:36:34;;;;;;;1.88;1.00;;;;;;;6.37;84.44;98856.19;5056407;28;20401;-62
2021/05/05 10:39:22;;;;;;;0.95;0.73;;;;;;;6.67;85.56;98870.28;5090415;28;20075;-62
2021/05/05 10:41:59;;;;;;;5.38;1.30;;;;;;;6.72;83.28;98865.25;5072632;28;20040;-62
2021/05/05 10:44:45;;;;;;;3.38;0.90;;;;;;;6.54;83.82;98873.53;5090501;28;20454;-62
2021/05/05 10:47:15;;;;;;;6.63;1.13;;;;;;;6.26;84.91;98873.34;5090658;28;20155;-62
2021/05/05 10:50:12;;;;;;;3.35;0.90;;;;;;;6.37;85.97;98885.34;5055796;28;20040;-62
2021/05/05 10:52:37;;;;;;;7.53;1.77;;;;;;;6.18;86.39;98888.47;5074293;28;20280;-62
2021/05/05 10:55:07;;;;;;;10.63;1.33;;;;;;;5.86;87.38;98893.03;5090737;28;20115;-63
2021/05/05 10:57:33;;;;;;;6.47;1.67;;;;;;;5.86;88.30;98912.38;5090121;28;20472;-63
2021/05/05 10:59:58;;;;;;;3.58;1.20;;;;;;;5.90;88.81;98897.78;5090483;28;20052;-63
2021/05/05 11:02:44;;;;;;;5.90;1.50;;;;;;;5.91;89.14;98896.78;5072863;28;20039;-63
2021/05/05 11:05:11;;;;;;;;;;;;;;;6.20;89.00;98908.50;5091070;28;20032;-63
2021/05/05 11:07:56;;;;;;;7.10;1.52;;;;;;;6.28;88.73;98900.47;5072597;28;20010;-62
2021/05/05 11:12:59;;;;;;;7.22;1.40;;;;;;;6.33;88.00;98900.75;5093301;28;20043;-62
2021/05/05 11:15:40;;;;;;;6.22;1.65;;;;;;;6.25;87.37;98908.81;5076318;28;20134;-62
2021/05/05 11:18:25;;;;;;;11.60;2.85;;;;;;;6.01;87.41;98922.25;5076009;28;20101;-62
2021/05/05 11:20:59;;;;;;;4.75;1.33;;;;;;;6.15;87.62;98913.50;5075979;28;20044;-62
2021/05/05 11:26:18;;;;;;;6.07;2.40;;;;;;;6.46;88.37;98917.88;5094091;28;20540;-68
2021/05/05 11:29:02;;;;;;;9.50;1.65;;;;;;;6.20;87.03;98915.63;5093630;28;20047;-69
2021/05/05 11:31:46;;;;;;;8.10;1.80;;;;;;;6.58;88.03;98910.28;5093957;28;20040;-68
2021/05/05 11:34:35;;;;;;;7.40;1.70;;;;;;;6.70;86.58;98917.63;5075955;28;20044;-68
2021/05/05 11:37:01;;;;;;;4.15;1.42;;;;;;;7.19;86.19;98919.72;5059428;28;20078;-68
2021/05/05 11:39:33;;;;;;;10.77;1.90;;;;;;;7.40;85.95;98910.97;5093252;28;20040;-68
2021/05/05 11:42:25;;;;;;;7.15;2.00;;;;;;;7.17;85.26;98919.06;5093769;28;20032;-69
2021/05/05 11:44:55;;;;;;;8.15;1.70;;;;;;;6.86;86.16;98918.44;5075710;28;20102;-68
2021/05/05 11:47:25;;;;;;;4.60;1.50;;;;;;;6.48;84.61;98929.13;5093499;28;20096;-69
2021/05/05 11:49:52;;;;;;;7.00;1.40;;;;;;;6.60;85.10;98924.19;5093270;28;20048;-69
2021/05/05 11:52:31;;;;;;;5.88;1.67;;;;;;;6.69;85.65;98918.63;5093434;28;20072;-68
2021/05/05 11:55:13;;;;;;;4.10;1.38;;;;;;;6.76;85.34;98935.44;5093383;28;20051;-68
2021/05/05 11:57:44;;;;;;;10.52;2.00;;;;;;;6.84;85.75;98936.41;5093132;28;20502;-69